Tucson International, AZ

10:42 AM MST on October 23, 2014 (GMT -0700)
Tucson International | Change Station
CLOSE
Current Station
Airport
Location: Tucson,
Elevation: 2556 ft
Nearby Weather Stations

Elev 2556 ft 32.13 °N, 110.96 °W | Updated 49 minutes ago

Clear
Clear
76 °F
Feels Like 76 °F
N
4
Wind Variable Wind from SSE

Today
High -- | Low -- °F
--% Chance of Precip.
Yesterday
High -- | Low -- °F
Precip. -- in
6:33 AM 5:42 PM
Waning Crescent, 0% visible
Pressure 30.02 in
Visibility 10.0 miles
Clouds Clear
Dew Point 48 °F
Humidity 37%
Rainfall 0.00 in
Snow Depth Not available.
UV 4 out of 12
Pollen 5.60 out of 12
Air Quality Not available.
Flu Activity No Activity
METAR KTUS 231653Z 15003KT 10SM CLR 24/09 A3013 RMK AO2 SLP165 T02440089

More Conditions Fewer Conditions

Pressure 30.02 in
Visibility 10.0 miles
Clouds Clear
Dew Point 48 °F
Humidity 37%
Rainfall 0.00 in
Snow Depth Not available.
UV 4 out of 12
Pollen 5.60 out of 12
Air Quality Not available.
Flu Activity No Activity
METAR KTUS 231653Z 15003KT 10SM CLR 24/09 A3013 RMK AO2 SLP165 T02440089

More Conditions Fewer Conditions

10-Day Weather Forecast

Almanac

Astronomy

Oct. 23, 2014 Rise Set
Actual Time 6:33 AM MST 5:42 PM MST
Civil Twilight 6:08 AM MST 6:07 PM MST
Nautical Twilight 5:39 AM MST 6:35 PM MST
Astronomical Twilight 5:11 AM MST 7:04 PM MST
Moon 6:17 AM MST 5:46 PM MST
Length of Visible Light 11h 58m
Length of Day
11h 08m
Tomorrow will be 1m 50s shorter.
Waning Crescent, 0% of the Moon is Illuminated
Today
Waning Crescent
Oct 23
New
Oct 30
First Quarter
Nov 6
Full
Nov 14
Last Quarter

Today's Extremes

State Highs State Lows

Community

WunderPhotos

Upload Photos

1,764,322 photos uploaded!

WunderBlogs® & News

Nearby

Snow Depth

Station Depth Elevation
Wildcat 0 in 7850 ft
Hannagan Meadows 0 in 9020 ft
Beaver Head 0 in 7990 ft
Baker Butte 0 in 7300 ft
Mormon Mountain 0 in 7500 ft

Earthquake Activity

City Distance Mag. Time & Date
No recent earthquake activity has been reported nearby.
Minimum magnitude displayed is 2.5.

Coastal Water Temperatures

Place Temperature
No Stations Reporting

Nearby Weather Stations